createdAt,value
2018-07-13T00:01:21.867Z,7.17
2018-07-13T00:03:49.372Z,6.90
2018-07-13T00:06:16.912Z,7.67
2018-07-13T00:08:44.454Z,7.10
2018-07-13T00:11:12.016Z,6.50
2018-07-13T00:14:21.746Z,7.40
2018-07-13T00:16:53.470Z,7.50
2018-07-13T00:19:21.588Z,8.20
2018-07-13T00:21:49.148Z,7.80
2018-07-13T00:24:16.677Z,7.83
2018-07-13T00:26:44.242Z,6.50
2018-07-13T00:29:11.921Z,7.80
2018-07-13T00:31:40.537Z,7.87
2018-07-13T00:34:08.101Z,9.33
2018-07-13T00:36:35.646Z,8.87
2018-07-13T00:39:05.137Z,9.17
2018-07-13T00:41:32.705Z,8.17
2018-07-13T00:44:00.238Z,7.13
2018-07-13T00:46:27.754Z,7.63
2018-07-13T00:48:55.305Z,7.90
2018-07-13T00:51:22.869Z,8.20
2018-07-13T00:53:50.405Z,8.53
2018-07-13T00:56:17.859Z,9.17
2018-07-13T00:58:45.407Z,8.53
2018-07-13T01:01:12.970Z,9.17
2018-07-13T01:03:40.493Z,9.60
2018-07-13T01:06:08.006Z,9.20
2018-07-13T01:08:35.559Z,9.00
2018-07-13T01:11:03.165Z,8.17
2018-07-13T01:13:30.752Z,8.30
2018-07-13T01:15:58.289Z,8.53
2018-07-13T01:18:25.866Z,8.90
2018-07-13T01:20:53.427Z,9.60
2018-07-13T01:23:21.062Z,9.50
2018-07-13T01:25:48.725Z,8.73
2018-07-13T01:28:16.279Z,9.37
2018-07-13T01:30:43.868Z,9.77
2018-07-13T01:33:11.413Z,9.10
2018-07-13T01:35:38.968Z,9.37
2018-07-13T01:38:06.524Z,10.03
2018-07-13T01:40:34.052Z,8.73
2018-07-13T01:43:01.597Z,8.90
2018-07-13T01:45:29.164Z,10.07
2018-07-13T01:47:56.672Z,9.23
2018-07-13T01:50:24.192Z,10.10
2018-07-13T01:52:52.198Z,10.90
2018-07-13T01:55:19.734Z,11.00
2018-07-13T01:57:47.254Z,10.03
2018-07-13T02:00:14.881Z,10.27
2018-07-13T02:02:42.501Z,9.77
2018-07-13T02:05:10.072Z,10.20
2018-07-13T02:07:37.962Z,10.80
2018-07-13T02:10:05.570Z,10.90
2018-07-13T02:12:33.111Z,10.80
2018-07-13T02:15:00.646Z,10.10
2018-07-13T02:17:28.168Z,9.27
2018-07-13T02:19:55.717Z,10.00
2018-07-13T02:22:23.266Z,8.90
2018-07-13T02:24:50.793Z,10.13
2018-07-13T02:27:18.318Z,9.60
2018-07-13T02:29:45.850Z,10.53
2018-07-13T02:32:13.402Z,8.87
2018-07-13T02:34:40.999Z,10.13
2018-07-13T02:37:08.668Z,9.30
2018-07-13T02:39:36.378Z,9.83
2018-07-13T02:42:03.939Z,9.20
2018-07-13T02:44:31.731Z,10.90
2018-07-13T02:46:59.291Z,10.67
2018-07-13T02:49:26.861Z,8.93
2018-07-13T02:51:54.398Z,11.10
2018-07-13T02:54:21.943Z,10.93
2018-07-13T02:56:49.617Z,9.30
2018-07-13T02:59:17.180Z,10.27
2018-07-13T03:01:44.718Z,10.47
2018-07-13T03:04:12.226Z,10.07
2018-07-13T03:06:39.784Z,9.10
2018-07-13T03:09:08.877Z,10.17
2018-07-13T03:11:36.514Z,9.30
2018-07-13T03:14:04.331Z,9.60
2018-07-13T03:16:31.878Z,10.23
2018-07-13T03:18:59.453Z,11.93
2018-07-13T03:21:27.048Z,10.43
2018-07-13T03:23:54.612Z,10.70
2018-07-13T03:26:22.163Z,10.70
2018-07-13T03:28:49.701Z,10.03
2018-07-13T03:31:17.253Z,10.83
2018-07-13T03:33:44.807Z,10.70
2018-07-13T03:36:12.379Z,9.80
2018-07-13T03:38:39.897Z,11.00
2018-07-13T03:41:07.446Z,10.33
2018-07-13T03:43:35.029Z,9.67
2018-07-13T03:46:02.582Z,9.83
2018-07-13T03:48:30.111Z,10.27
2018-07-13T03:50:57.863Z,10.50
2018-07-13T03:53:25.517Z,10.40
2018-07-13T03:55:53.092Z,11.10
2018-07-13T03:58:20.629Z,10.30
2018-07-13T04:00:48.306Z,11.00
2018-07-13T04:03:15.851Z,10.20
2018-07-13T04:05:43.435Z,12.90
2018-07-13T04:08:11.181Z,11.87
2018-07-13T04:10:38.779Z,10.63
2018-07-13T04:13:06.413Z,11.13
2018-07-13T04:15:34.018Z,10.70
2018-07-13T04:18:01.548Z,8.80
2018-07-13T04:20:29.196Z,11.03
2018-07-13T04:22:56.856Z,10.77
2018-07-13T04:25:24.508Z,10.70
2018-07-13T04:27:52.187Z,11.90
2018-07-13T04:30:19.838Z,11.93
2018-07-13T04:32:47.404Z,12.33
2018-07-13T04:35:14.940Z,12.63
2018-07-13T04:37:42.510Z,13.87
2018-07-13T04:40:10.154Z,12.10
2018-07-13T04:42:37.768Z,11.70
2018-07-13T04:45:05.418Z,11.60
2018-07-13T04:47:33.029Z,11.53
2018-07-13T04:50:00.744Z,7.97
2018-07-13T04:52:28.365Z,9.23
2018-07-13T04:54:56.028Z,9.87
2018-07-13T04:57:23.688Z,9.03
2018-07-13T04:59:51.446Z,7.27
2018-07-13T05:02:19.120Z,9.63
2018-07-13T05:04:46.779Z,9.33
2018-07-13T05:07:14.398Z,9.67
2018-07-13T05:09:41.985Z,11.37
2018-07-13T05:12:09.590Z,9.23
2018-07-13T05:14:37.269Z,10.77
2018-07-13T05:17:04.871Z,9.63
2018-07-13T05:19:32.409Z,9.07
2018-07-13T05:22:00.041Z,10.43
2018-07-13T05:24:27.585Z,10.73
2018-07-13T05:26:55.252Z,9.20
2018-07-13T05:29:22.872Z,10.17
2018-07-13T05:31:50.480Z,8.70
2018-07-13T05:34:18.171Z,9.30
2018-07-13T05:36:45.803Z,10.20
2018-07-13T05:39:13.448Z,11.30
2018-07-13T05:41:41.717Z,10.90
2018-07-13T05:44:09.360Z,8.87
2018-07-13T05:46:37.127Z,11.30
2018-07-13T05:49:04.753Z,10.17
2018-07-13T05:51:32.431Z,10.47
2018-07-13T05:54:00.084Z,9.90
2018-07-13T05:56:27.751Z,9.63
2018-07-13T05:58:55.451Z,9.33
2018-07-13T06:01:23.171Z,9.13
2018-07-13T06:03:50.984Z,9.47
2018-07-13T06:06:18.653Z,8.30
2018-07-13T06:08:46.303Z,9.40
2018-07-13T06:11:14.104Z,8.33
2018-07-13T06:13:41.736Z,9.23
2018-07-13T06:16:09.290Z,8.80
2018-07-13T06:18:36.777Z,8.70
2018-07-13T06:21:04.500Z,9.23
2018-07-13T06:23:32.069Z,7.90
2018-07-13T06:25:59.665Z,7.80
2018-07-13T06:28:27.160Z,8.00
2018-07-13T06:30:54.799Z,7.07
2018-07-13T06:33:22.383Z,8.30
2018-07-13T06:35:49.859Z,8.03
2018-07-13T06:38:17.373Z,7.33
2018-07-13T06:40:45.055Z,8.50
2018-07-13T06:43:12.803Z,7.30
2018-07-13T06:45:40.861Z,7.80
2018-07-13T06:48:09.030Z,8.10
2018-07-13T06:50:37.145Z,7.37
2018-07-13T06:53:04.932Z,6.40
2018-07-13T06:55:32.517Z,7.30
2018-07-13T06:58:11.395Z,7.60
2018-07-13T07:01:03.517Z,7.20
2018-07-13T07:04:37.209Z,6.73
2018-07-13T07:07:14.588Z,7.10
2018-07-13T07:09:45.210Z,6.87
2018-07-13T07:12:53.736Z,6.83
2018-07-13T07:15:22.261Z,5.50
2018-07-13T07:17:49.861Z,6.37
2018-07-13T07:20:17.434Z,6.70
2018-07-13T07:22:45.474Z,5.17
2018-07-13T07:25:13.050Z,5.17
2018-07-13T07:27:40.609Z,6.07
2018-07-13T07:30:09.533Z,6.07
2018-07-13T07:32:37.132Z,6.20
2018-07-13T07:35:04.823Z,5.63
2018-07-13T07:37:32.442Z,4.00
2018-07-13T07:40:00.050Z,4.97
2018-07-13T07:42:27.716Z,5.00
2018-07-13T07:44:55.246Z,4.70
2018-07-13T07:47:22.820Z,4.60
2018-07-13T07:49:50.452Z,4.87
2018-07-13T07:52:18.024Z,5.30
2018-07-13T07:54:45.612Z,4.83
2018-07-13T07:57:13.230Z,4.90
2018-07-13T07:59:40.931Z,4.60
2018-07-13T08:02:08.454Z,5.33
2018-07-13T08:04:36.062Z,5.17
2018-07-13T08:07:04.198Z,4.60
2018-07-13T08:09:31.286Z,4.43
2018-07-13T08:11:58.809Z,5.07
2018-07-13T08:14:26.484Z,4.03
2018-07-13T08:16:54.016Z,4.30
2018-07-13T08:19:21.549Z,3.70
2018-07-13T08:21:49.214Z,4.40
2018-07-13T08:24:18.851Z,4.60
2018-07-13T08:26:46.978Z,5.00
2018-07-13T08:29:15.644Z,4.57
2018-07-13T08:31:43.249Z,4.60
2018-07-13T08:34:10.904Z,4.90
2018-07-13T08:36:38.490Z,4.30
2018-07-13T08:39:07.040Z,3.90
2018-07-13T08:41:34.708Z,3.90
2018-07-13T08:44:02.335Z,3.57
2018-07-13T08:46:29.866Z,3.87
2018-07-13T08:48:57.408Z,3.80
2018-07-13T08:51:25.205Z,3.20
2018-07-13T08:53:52.812Z,3.23
2018-07-13T08:56:20.527Z,3.43
2018-07-13T08:58:48.182Z,3.17
2018-07-13T09:01:15.642Z,3.70
2018-07-13T09:03:43.221Z,2.90
2018-07-13T09:06:10.805Z,3.47
2018-07-13T09:08:38.433Z,3.70
2018-07-13T09:11:06.633Z,3.27
2018-07-13T09:13:34.297Z,2.93
2018-07-13T09:16:01.917Z,3.43
2018-07-13T09:18:29.475Z,3.33
2018-07-13T09:20:56.954Z,2.93
2018-07-13T09:23:24.496Z,2.90
2018-07-13T09:25:52.227Z,2.80
2018-07-13T09:28:19.960Z,2.90
2018-07-13T09:30:47.558Z,2.83
2018-07-13T09:33:15.149Z,3.17
2018-07-13T09:35:42.748Z,3.30
2018-07-13T09:38:10.352Z,2.97
2018-07-13T09:40:38.016Z,3.27
2018-07-13T09:43:05.669Z,3.60
2018-07-13T09:45:33.293Z,2.93
2018-07-13T09:48:00.866Z,2.90
2018-07-13T09:50:28.509Z,2.70
2018-07-13T09:52:56.230Z,2.87
2018-07-13T09:55:23.911Z,2.97
2018-07-13T09:57:51.532Z,2.93
2018-07-13T10:00:19.202Z,2.90
2018-07-13T10:02:46.831Z,2.43
2018-07-13T10:05:14.468Z,2.90
2018-07-13T10:07:42.138Z,3.10
2018-07-13T10:10:09.677Z,2.70
2018-07-13T10:12:37.261Z,2.53
2018-07-13T10:15:05.213Z,3.10
2018-07-13T10:17:32.821Z,2.50
2018-07-13T10:20:00.369Z,2.77
2018-07-13T10:22:28.800Z,2.70
2018-07-13T10:24:58.691Z,2.87
2018-07-13T10:27:29.465Z,3.20
2018-07-13T10:29:57.843Z,2.20
2018-07-13T10:32:25.537Z,3.33
2018-07-13T10:34:53.995Z,3.10
2018-07-13T10:37:21.621Z,2.40
2018-07-13T10:39:49.237Z,3.27
2018-07-13T10:42:16.783Z,2.90
2018-07-13T10:44:44.348Z,2.80
2018-07-13T10:47:11.950Z,2.90
2018-07-13T10:49:39.502Z,2.80
2018-07-13T10:52:07.088Z,2.67
2018-07-13T10:54:34.656Z,2.50
2018-07-13T10:57:02.238Z,2.40
2018-07-13T10:59:29.797Z,2.33
2018-07-13T11:01:57.370Z,3.27
2018-07-13T11:04:24.947Z,2.83
2018-07-13T11:06:52.622Z,2.93
2018-07-13T11:09:20.159Z,2.83
2018-07-13T11:11:47.728Z,2.40
2018-07-13T11:14:15.319Z,3.10
2018-07-13T11:16:42.874Z,2.77
2018-07-13T11:19:10.560Z,2.73
2018-07-13T11:21:38.168Z,2.47
2018-07-13T11:24:05.874Z,2.30
2018-07-13T11:26:33.398Z,3.10
2018-07-13T11:29:00.979Z,2.70
2018-07-13T11:31:28.564Z,2.77
2018-07-13T11:33:56.350Z,2.40
2018-07-13T11:36:23.933Z,3.10
2018-07-13T11:38:51.555Z,2.60
2018-07-13T11:41:19.209Z,2.67
2018-07-13T11:43:46.781Z,3.00
2018-07-13T11:46:14.475Z,2.40
2018-07-13T11:48:42.028Z,2.50
2018-07-13T11:51:09.751Z,2.80
2018-07-13T11:53:37.289Z,3.10
2018-07-13T11:56:04.938Z,2.93
2018-07-13T11:58:32.465Z,3.00
2018-07-13T12:01:00.073Z,3.17
2018-07-13T12:03:27.642Z,2.57
2018-07-13T12:05:55.223Z,2.87
2018-07-13T12:08:22.939Z,2.50
2018-07-13T12:10:50.519Z,3.13
2018-07-13T12:13:18.095Z,2.93
2018-07-13T12:15:46.075Z,3.10
2018-07-13T12:18:13.608Z,2.60
2018-07-13T12:20:41.221Z,2.87
2018-07-13T12:23:08.950Z,2.30
2018-07-13T12:25:36.541Z,2.47
2018-07-13T12:28:04.219Z,2.27
2018-07-13T12:30:31.808Z,2.77
2018-07-13T12:32:59.469Z,2.13
2018-07-13T12:35:27.046Z,2.37
2018-07-13T12:37:54.600Z,2.10
2018-07-13T12:40:22.180Z,2.43
2018-07-13T12:42:49.763Z,2.53
2018-07-13T12:45:17.420Z,2.90
2018-07-13T12:47:44.983Z,1.90
2018-07-13T12:50:12.611Z,2.43
2018-07-13T12:52:40.199Z,2.37
2018-07-13T12:55:07.879Z,2.37
2018-07-13T12:57:35.416Z,2.10
2018-07-13T13:00:03.021Z,2.43
2018-07-13T13:02:30.593Z,2.50
2018-07-13T13:04:58.165Z,2.47
2018-07-13T13:07:25.705Z,2.80
2018-07-13T13:09:53.588Z,2.33
2018-07-13T13:12:24.975Z,2.30
2018-07-13T13:14:52.998Z,2.00
2018-07-13T13:17:20.552Z,2.60
2018-07-13T13:19:48.119Z,1.80
2018-07-13T13:22:15.734Z,2.17
2018-07-13T13:24:43.364Z,2.00
2018-07-13T13:27:10.946Z,2.50
2018-07-13T13:29:38.562Z,2.37
2018-07-13T13:32:06.239Z,2.83
2018-07-13T13:34:33.777Z,2.10
2018-07-13T13:37:01.313Z,1.97
2018-07-13T13:39:28.974Z,1.90
2018-07-13T13:41:56.584Z,1.90
2018-07-13T13:44:24.187Z,1.83
2018-07-13T13:46:51.754Z,2.03
2018-07-13T13:49:19.343Z,2.17
2018-07-13T13:51:46.918Z,2.10
2018-07-13T13:54:15.085Z,1.87
2018-07-13T13:56:42.653Z,2.00
2018-07-13T13:59:10.234Z,1.73
2018-07-13T14:01:37.799Z,1.90
2018-07-13T14:04:05.471Z,2.57
2018-07-13T14:06:33.064Z,2.17
2018-07-13T14:09:00.674Z,2.47
2018-07-13T14:11:28.220Z,1.93
2018-07-13T14:13:55.807Z,2.10
2018-07-13T14:16:23.411Z,1.90
2018-07-13T14:18:50.979Z,2.10
2018-07-13T14:21:18.678Z,2.13
2018-07-13T14:23:46.183Z,2.10
2018-07-13T14:26:13.728Z,1.90
2018-07-13T14:28:41.282Z,2.10
2018-07-13T14:31:08.881Z,1.80
2018-07-13T14:33:36.504Z,2.07
2018-07-13T14:36:04.167Z,2.00
2018-07-13T14:38:31.755Z,1.70
2018-07-13T14:40:59.299Z,2.07
2018-07-13T14:43:26.884Z,1.97
2018-07-13T14:45:54.480Z,1.90
2018-07-13T14:48:22.037Z,2.00
2018-07-13T14:50:49.608Z,2.13
2018-07-13T14:53:17.151Z,2.13
2018-07-13T14:55:44.720Z,1.70
2018-07-13T14:58:12.414Z,2.00
2018-07-13T15:00:39.908Z,2.10
2018-07-13T15:03:07.476Z,2.30
2018-07-13T15:05:35.037Z,2.10
2018-07-13T15:08:02.537Z,2.10
2018-07-13T15:10:30.116Z,2.03
2018-07-13T15:12:57.657Z,2.00
2018-07-13T15:15:25.221Z,1.87
2018-07-13T15:17:52.868Z,2.20
2018-07-13T15:20:20.406Z,1.70
2018-07-13T15:22:47.961Z,2.00
2018-07-13T15:25:15.584Z,2.27
2018-07-13T15:27:43.167Z,1.60
2018-07-13T15:30:10.648Z,1.70
2018-07-13T15:32:38.157Z,1.37
2018-07-13T15:35:05.809Z,1.80
2018-07-13T15:37:33.395Z,2.17
2018-07-13T15:40:00.946Z,1.80
2018-07-13T15:42:28.507Z,1.60
2018-07-13T15:44:56.012Z,1.80
2018-07-13T15:47:23.564Z,1.90
2018-07-13T15:49:51.149Z,1.70
2018-07-13T15:52:18.762Z,1.83
2018-07-13T15:54:46.339Z,2.00
2018-07-13T15:57:13.895Z,1.63
2018-07-13T15:59:41.441Z,2.00
2018-07-13T16:02:09.106Z,2.30
2018-07-13T16:04:36.695Z,2.13
2018-07-13T16:07:04.266Z,1.90
2018-07-13T16:09:31.820Z,2.43
2018-07-13T16:11:59.478Z,1.70
2018-07-13T16:14:27.046Z,2.10
2018-07-13T16:16:54.692Z,1.90
2018-07-13T16:19:22.253Z,1.90
2018-07-13T16:21:49.799Z,1.90
2018-07-13T16:24:17.305Z,1.60
2018-07-13T16:26:44.851Z,2.10
2018-07-13T16:29:12.456Z,1.70
2018-07-13T16:31:40.005Z,1.70
2018-07-13T16:34:07.584Z,1.73
2018-07-13T16:36:35.130Z,1.40
2018-07-13T16:39:03.993Z,1.73
2018-07-13T16:41:31.549Z,1.90
2018-07-13T16:43:59.139Z,2.17
2018-07-13T16:46:26.611Z,2.00
2018-07-13T16:48:54.179Z,2.27
2018-07-13T16:51:21.768Z,2.20
2018-07-13T16:53:49.351Z,2.03
2018-07-13T16:56:17.050Z,2.20
2018-07-13T16:58:44.506Z,2.10
2018-07-13T17:01:12.182Z,2.10
2018-07-13T17:03:39.760Z,2.27
2018-07-13T17:06:07.367Z,2.20
2018-07-13T17:08:34.925Z,2.37
2018-07-13T17:11:02.513Z,2.53
2018-07-13T17:13:30.095Z,1.83
2018-07-13T17:15:57.573Z,2.73
2018-07-13T17:18:25.143Z,2.13
2018-07-13T17:20:52.709Z,2.17
2018-07-13T17:23:20.208Z,2.20
2018-07-13T17:25:47.781Z,2.03
2018-07-13T17:28:15.376Z,2.27
2018-07-13T17:30:42.964Z,2.00
2018-07-13T17:33:10.548Z,2.23
2018-07-13T17:35:38.097Z,2.37
2018-07-13T17:38:05.676Z,2.10
2018-07-13T17:40:33.185Z,2.40
2018-07-13T17:43:00.757Z,2.50
2018-07-13T17:45:28.264Z,2.50
2018-07-13T17:47:55.838Z,2.70
2018-07-13T17:50:23.417Z,2.83
2018-07-13T17:52:50.996Z,2.40
2018-07-13T17:55:18.594Z,2.70
2018-07-13T17:57:46.198Z,2.83
2018-07-13T18:00:13.894Z,2.43
2018-07-13T18:02:41.478Z,2.70
2018-07-13T18:05:09.053Z,2.60
2018-07-13T18:07:36.768Z,3.40
2018-07-13T18:10:04.431Z,2.50
2018-07-13T18:12:32.104Z,2.53
2018-07-13T18:14:59.671Z,3.50
2018-07-13T18:17:27.294Z,3.03
2018-07-13T18:19:54.903Z,2.83
2018-07-13T18:22:22.481Z,2.93
2018-07-13T18:24:50.091Z,2.43
2018-07-13T18:27:17.675Z,4.00
2018-07-13T18:29:45.249Z,2.90
2018-07-13T18:32:12.820Z,2.67
2018-07-13T18:34:40.400Z,2.77
2018-07-13T18:37:08.075Z,3.60
2018-07-13T18:39:35.734Z,2.90
2018-07-13T18:42:03.292Z,3.70
2018-07-13T18:44:30.895Z,3.20
2018-07-13T18:46:58.528Z,3.20
2018-07-13T18:49:26.222Z,3.40
2018-07-13T18:51:53.818Z,2.87
2018-07-13T18:54:21.369Z,3.30
2018-07-13T18:56:48.844Z,3.53
2018-07-13T18:59:16.454Z,3.03
2018-07-13T19:01:44.007Z,2.73
2018-07-13T19:04:11.567Z,2.97
2018-07-13T19:06:39.288Z,3.20
2018-07-13T19:09:08.075Z,3.10
2018-07-13T19:11:35.712Z,2.90
2018-07-13T19:14:03.333Z,3.30
2018-07-13T19:16:31.024Z,3.77
2018-07-13T19:18:58.594Z,3.17
2018-07-13T19:21:26.198Z,3.23
2018-07-13T19:23:53.887Z,3.43
2018-07-13T19:26:21.592Z,3.23
2018-07-13T19:28:49.236Z,3.27
2018-07-13T19:31:16.858Z,3.43
2018-07-13T19:33:44.454Z,3.70
2018-07-13T19:36:12.074Z,3.57
2018-07-13T19:38:39.623Z,3.60
2018-07-13T19:41:07.259Z,3.77
2018-07-13T19:43:34.947Z,4.20
2018-07-13T19:46:02.528Z,4.13
2018-07-13T19:48:30.156Z,3.90
2018-07-13T19:50:57.766Z,4.23
2018-07-13T19:53:25.291Z,3.90
2018-07-13T19:55:52.952Z,4.63
2018-07-13T19:58:20.631Z,4.17
2018-07-13T20:00:48.285Z,3.30
2018-07-13T20:03:15.948Z,3.37
2018-07-13T20:05:43.579Z,3.90
2018-07-13T20:08:11.150Z,4.13
2018-07-13T20:10:38.822Z,4.20
2018-07-13T20:13:07.442Z,4.80
2018-07-13T20:15:35.070Z,3.70
2018-07-13T20:18:02.788Z,3.80
2018-07-13T20:20:30.455Z,4.30
2018-07-13T20:22:58.085Z,4.53
2018-07-13T20:25:25.692Z,4.70
2018-07-13T20:27:53.265Z,4.70
2018-07-13T20:30:20.929Z,4.10
2018-07-13T20:32:48.577Z,4.20
2018-07-13T20:35:16.169Z,4.20
2018-07-13T20:37:43.795Z,4.53
2018-07-13T20:40:11.361Z,4.27
2018-07-13T20:42:39.073Z,4.70
2018-07-13T20:45:06.746Z,4.97
2018-07-13T20:47:34.350Z,4.70
2018-07-13T20:50:01.986Z,5.07
2018-07-13T20:52:29.593Z,5.10
2018-07-13T20:54:57.062Z,4.23
2018-07-13T20:57:24.690Z,4.73
2018-07-13T20:59:52.228Z,6.30
2018-07-13T21:02:19.779Z,4.60
2018-07-13T21:04:47.364Z,5.10
2018-07-13T21:07:14.938Z,5.10
2018-07-13T21:09:42.562Z,5.83
2018-07-13T21:12:10.158Z,6.00
2018-07-13T21:14:37.732Z,6.00
2018-07-13T21:17:05.489Z,5.50
2018-07-13T21:19:33.074Z,5.43
2018-07-13T21:22:00.686Z,5.50
2018-07-13T21:24:28.344Z,5.50
2018-07-13T21:26:56.107Z,5.37
2018-07-13T21:29:23.532Z,5.47
2018-07-13T21:31:51.083Z,6.73
2018-07-13T21:34:18.703Z,5.70
2018-07-13T21:36:46.312Z,6.03
2018-07-13T21:39:13.885Z,5.37
2018-07-13T21:41:41.510Z,5.97
2018-07-13T21:44:09.074Z,5.70
2018-07-13T21:46:36.653Z,6.13
2018-07-13T21:49:04.346Z,6.40
2018-07-13T21:51:31.927Z,6.60
2018-07-13T21:53:59.505Z,6.93
2018-07-13T21:56:27.105Z,7.27
2018-07-13T21:58:54.689Z,6.87
2018-07-13T22:01:22.437Z,6.90
2018-07-13T22:03:50.028Z,8.97
2018-07-13T22:06:17.586Z,7.47
2018-07-13T22:08:45.146Z,7.00
2018-07-13T22:11:12.734Z,6.80
2018-07-13T22:13:40.313Z,7.70
2018-07-13T22:16:07.924Z,6.40
2018-07-13T22:18:35.501Z,6.33
2018-07-13T22:21:03.070Z,6.10
2018-07-13T22:23:30.651Z,6.20
2018-07-13T22:25:58.276Z,5.93
2018-07-13T22:28:25.854Z,8.10
2018-07-13T22:30:53.445Z,7.50
2018-07-13T22:33:20.978Z,8.60
2018-07-13T22:35:48.611Z,9.83
2018-07-13T22:38:16.172Z,7.73
2018-07-13T22:40:43.795Z,8.17
2018-07-13T22:43:11.417Z,8.40
2018-07-13T22:45:38.977Z,7.93
2018-07-13T22:48:06.600Z,6.57
2018-07-13T22:50:34.199Z,7.67
2018-07-13T22:53:01.785Z,6.97
2018-07-13T22:55:29.351Z,6.17
2018-07-13T22:57:56.896Z,6.60
2018-07-13T23:00:24.597Z,6.50
2018-07-13T23:02:52.185Z,6.90
2018-07-13T23:05:19.827Z,8.30
2018-07-13T23:07:47.402Z,8.00
2018-07-13T23:10:14.948Z,9.00
2018-07-13T23:12:42.647Z,8.00
2018-07-13T23:15:10.268Z,8.23
2018-07-13T23:17:37.846Z,8.10
2018-07-13T23:20:05.477Z,9.17
2018-07-13T23:22:33.048Z,8.00
2018-07-13T23:25:00.570Z,7.70
2018-07-13T23:27:28.146Z,7.53
2018-07-13T23:29:55.730Z,7.50
2018-07-13T23:32:23.306Z,8.13
2018-07-13T23:34:50.889Z,7.47
2018-07-13T23:37:18.471Z,8.17
2018-07-13T23:39:46.018Z,7.70
2018-07-13T23:42:13.642Z,7.90
2018-07-13T23:44:41.419Z,8.30
2018-07-13T23:47:08.948Z,8.17
2018-07-13T23:49:36.473Z,7.97
2018-07-13T23:52:04.012Z,8.50
2018-07-13T23:54:31.605Z,8.30
2018-07-13T23:56:59.190Z,8.97
2018-07-13T23:59:27.635Z,9.60
